sensor_id;sensor_type;location;lat;lon;timestamp;P1;durP1;ratioP1;P2;durP2;ratioP2
13868;SDS011;7004;48.206;16.402;2023-04-25T00:01:24;2.10;;;1.90;;
13868;SDS011;7004;48.206;16.402;2023-04-25T00:03:50;1.70;;;1.60;;
13868;SDS011;7004;48.206;16.402;2023-04-25T00:06:17;1.90;;;1.80;;
13868;SDS011;7004;48.206;16.402;2023-04-25T00:08:43;1.50;;;1.40;;
13868;SDS011;7004;48.206;16.402;2023-04-25T00:11:09;2.00;;;1.80;;
13868;SDS011;7004;48.206;16.402;2023-04-25T00:13:35;1.97;;;1.77;;
13868;SDS011;7004;48.206;16.402;2023-04-25T00:16:02;1.63;;;1.40;;
13868;SDS011;7004;48.206;16.402;2023-04-25T00:18:29;2.50;;;1.80;;
13868;SDS011;7004;48.206;16.402;2023-04-25T00:20:58;2.57;;;1.53;;
13868;SDS011;7004;48.206;16.402;2023-04-25T00:23:24;1.90;;;1.70;;
13868;SDS011;7004;48.206;16.402;2023-04-25T00:25:51;2.40;;;2.00;;
13868;SDS011;7004;48.206;16.402;2023-04-25T00:28:17;2.10;;;1.90;;
13868;SDS011;7004;48.206;16.402;2023-04-25T00:30:43;2.30;;;2.07;;
13868;SDS011;7004;48.206;16.402;2023-04-25T00:33:09;2.50;;;2.10;;
13868;SDS011;7004;48.206;16.402;2023-04-25T00:35:36;2.20;;;2.00;;
13868;SDS011;7004;48.206;16.402;2023-04-25T00:38:04;2.80;;;1.70;;
13868;SDS011;7004;48.206;16.402;2023-04-25T00:40:30;3.13;;;1.80;;
13868;SDS011;7004;48.206;16.402;2023-04-25T00:42:56;1.80;;;1.70;;
13868;SDS011;7004;48.206;16.402;2023-04-25T00:45:22;2.13;;;1.70;;
13868;SDS011;7004;48.206;16.402;2023-04-25T00:47:57;2.30;;;1.87;;
13868;SDS011;7004;48.206;16.402;2023-04-25T00:50:24;1.97;;;1.87;;
13868;SDS011;7004;48.206;16.402;2023-04-25T00:52:50;1.87;;;1.73;;
13868;SDS011;7004;48.206;16.402;2023-04-25T00:55:17;2.43;;;2.00;;
13868;SDS011;7004;48.206;16.402;2023-04-25T00:57:43;1.83;;;1.63;;
13868;SDS011;7004;48.206;16.402;2023-04-25T01:00:09;1.83;;;1.73;;
13868;SDS011;7004;48.206;16.402;2023-04-25T01:02:38;1.87;;;1.77;;
13868;SDS011;7004;48.206;16.402;2023-04-25T01:05:07;2.20;;;1.93;;
13868;SDS011;7004;48.206;16.402;2023-04-25T01:07:34;2.93;;;1.87;;
13868;SDS011;7004;48.206;16.402;2023-04-25T01:10:00;1.87;;;1.77;;
13868;SDS011;7004;48.206;16.402;2023-04-25T01:12:27;4.37;;;2.63;;
13868;SDS011;7004;48.206;16.402;2023-04-25T01:14:53;4.27;;;2.20;;
13868;SDS011;7004;48.206;16.402;2023-04-25T01:17:20;2.40;;;2.20;;
13868;SDS011;7004;48.206;16.402;2023-04-25T01:19:46;2.23;;;2.00;;
13868;SDS011;7004;48.206;16.402;2023-04-25T01:22:14;3.70;;;2.23;;
13868;SDS011;7004;48.206;16.402;2023-04-25T01:24:41;2.10;;;1.90;;
13868;SDS011;7004;48.206;16.402;2023-04-25T01:27:08;2.67;;;2.20;;
13868;SDS011;7004;48.206;16.402;2023-04-25T01:29:35;3.70;;;2.23;;
13868;SDS011;7004;48.206;16.402;2023-04-25T01:32:01;2.20;;;2.00;;
13868;SDS011;7004;48.206;16.402;2023-04-25T01:34:28;2.00;;;1.83;;
13868;SDS011;7004;48.206;16.402;2023-04-25T01:36:54;2.40;;;2.20;;
13868;SDS011;7004;48.206;16.402;2023-04-25T01:39:21;3.43;;;2.30;;
13868;SDS011;7004;48.206;16.402;2023-04-25T01:41:47;2.13;;;1.93;;
13868;SDS011;7004;48.206;16.402;2023-04-25T01:44:14;2.30;;;2.10;;
13868;SDS011;7004;48.206;16.402;2023-04-25T01:46:40;3.87;;;2.07;;
13868;SDS011;7004;48.206;16.402;2023-04-25T01:49:07;2.43;;;2.23;;
13868;SDS011;7004;48.206;16.402;2023-04-25T01:51:33;2.37;;;2.10;;
13868;SDS011;7004;48.206;16.402;2023-04-25T01:54:02;1.93;;;1.83;;
13868;SDS011;7004;48.206;16.402;2023-04-25T01:56:32;3.07;;;2.30;;
13868;SDS011;7004;48.206;16.402;2023-04-25T01:59:01;2.17;;;2.00;;
13868;SDS011;7004;48.206;16.402;2023-04-25T02:01:28;2.17;;;1.73;;
13868;SDS011;7004;48.206;16.402;2023-04-25T02:03:55;2.00;;;1.90;;
13868;SDS011;7004;48.206;16.402;2023-04-25T02:06:21;3.13;;;1.90;;
13868;SDS011;7004;48.206;16.402;2023-04-25T02:08:47;2.23;;;2.03;;
13868;SDS011;7004;48.206;16.402;2023-04-25T02:11:13;2.40;;;2.20;;
13868;SDS011;7004;48.206;16.402;2023-04-25T02:13:40;3.73;;;1.93;;
13868;SDS011;7004;48.206;16.402;2023-04-25T02:16:06;2.50;;;2.10;;
13868;SDS011;7004;48.206;16.402;2023-04-25T02:18:33;2.67;;;2.10;;
13868;SDS011;7004;48.206;16.402;2023-04-25T02:20:59;2.20;;;2.00;;
13868;SDS011;7004;48.206;16.402;2023-04-25T02:23:26;2.60;;;2.40;;
13868;SDS011;7004;48.206;16.402;2023-04-25T02:25:54;2.53;;;2.20;;
13868;SDS011;7004;48.206;16.402;2023-04-25T02:28:21;2.43;;;2.10;;
13868;SDS011;7004;48.206;16.402;2023-04-25T02:30:49;2.20;;;2.00;;
13868;SDS011;7004;48.206;16.402;2023-04-25T02:33:15;2.83;;;2.20;;
13868;SDS011;7004;48.206;16.402;2023-04-25T02:35:42;2.63;;;2.10;;
13868;SDS011;7004;48.206;16.402;2023-04-25T02:38:08;3.33;;;2.33;;
13868;SDS011;7004;48.206;16.402;2023-04-25T02:40:34;2.57;;;2.37;;
13868;SDS011;7004;48.206;16.402;2023-04-25T02:43:00;3.20;;;2.57;;
13868;SDS011;7004;48.206;16.402;2023-04-25T02:45:27;2.80;;;2.23;;
13868;SDS011;7004;48.206;16.402;2023-04-25T02:47:53;2.30;;;2.10;;
13868;SDS011;7004;48.206;16.402;2023-04-25T02:50:19;2.73;;;2.50;;
13868;SDS011;7004;48.206;16.402;2023-04-25T02:52:46;2.53;;;2.20;;
13868;SDS011;7004;48.206;16.402;2023-04-25T02:55:13;3.40;;;3.00;;
13868;SDS011;7004;48.206;16.402;2023-04-25T02:57:39;6.10;;;2.80;;
13868;SDS011;7004;48.206;16.402;2023-04-25T03:00:06;2.93;;;2.60;;
13868;SDS011;7004;48.206;16.402;2023-04-25T03:02:33;2.67;;;2.47;;
13868;SDS011;7004;48.206;16.402;2023-04-25T03:04:59;2.97;;;2.67;;
13868;SDS011;7004;48.206;16.402;2023-04-25T03:07:25;3.57;;;2.50;;
13868;SDS011;7004;48.206;16.402;2023-04-25T03:09:51;3.00;;;2.40;;
13868;SDS011;7004;48.206;16.402;2023-04-25T03:12:17;3.30;;;2.37;;
13868;SDS011;7004;48.206;16.402;2023-04-25T03:14:43;2.50;;;2.10;;
13868;SDS011;7004;48.206;16.402;2023-04-25T03:17:10;3.03;;;2.63;;
13868;SDS011;7004;48.206;16.402;2023-04-25T03:19:36;2.83;;;2.40;;
13868;SDS011;7004;48.206;16.402;2023-04-25T03:22:02;3.00;;;2.40;;
13868;SDS011;7004;48.206;16.402;2023-04-25T03:24:28;3.07;;;2.30;;
13868;SDS011;7004;48.206;16.402;2023-04-25T03:26:54;3.30;;;2.80;;
13868;SDS011;7004;48.206;16.402;2023-04-25T03:29:20;3.00;;;2.57;;
13868;SDS011;7004;48.206;16.402;2023-04-25T03:31:49;3.20;;;2.90;;
13868;SDS011;7004;48.206;16.402;2023-04-25T03:34:15;3.73;;;2.53;;
13868;SDS011;7004;48.206;16.402;2023-04-25T03:36:41;4.37;;;2.40;;
13868;SDS011;7004;48.206;16.402;2023-04-25T03:39:08;3.13;;;2.83;;
13868;SDS011;7004;48.206;16.402;2023-04-25T03:41:34;2.93;;;2.37;;
13868;SDS011;7004;48.206;16.402;2023-04-25T03:44:00;3.03;;;2.60;;
13868;SDS011;7004;48.206;16.402;2023-04-25T03:46:26;2.70;;;2.50;;
13868;SDS011;7004;48.206;16.402;2023-04-25T03:48:52;3.93;;;2.60;;
13868;SDS011;7004;48.206;16.402;2023-04-25T03:51:18;3.03;;;2.73;;
13868;SDS011;7004;48.206;16.402;2023-04-25T03:53:44;3.07;;;2.73;;
13868;SDS011;7004;48.206;16.402;2023-04-25T03:56:10;2.67;;;2.47;;
13868;SDS011;7004;48.206;16.402;2023-04-25T03:58:36;4.17;;;2.63;;
13868;SDS011;7004;48.206;16.402;2023-04-25T04:01:03;2.67;;;2.47;;
13868;SDS011;7004;48.206;16.402;2023-04-25T04:03:33;4.67;;;2.50;;
13868;SDS011;7004;48.206;16.402;2023-04-25T04:06:01;3.47;;;2.60;;
13868;SDS011;7004;48.206;16.402;2023-04-25T04:08:29;3.17;;;2.60;;
13868;SDS011;7004;48.206;16.402;2023-04-25T04:10:56;2.83;;;2.40;;
13868;SDS011;7004;48.206;16.402;2023-04-25T04:13:25;2.90;;;2.57;;
13868;SDS011;7004;48.206;16.402;2023-04-25T04:15:55;3.17;;;2.87;;
13868;SDS011;7004;48.206;16.402;2023-04-25T04:18:21;3.50;;;2.83;;
13868;SDS011;7004;48.206;16.402;2023-04-25T04:20:47;3.63;;;2.73;;
13868;SDS011;7004;48.206;16.402;2023-04-25T04:23:13;3.27;;;2.63;;
13868;SDS011;7004;48.206;16.402;2023-04-25T04:25:39;4.27;;;2.77;;
13868;SDS011;7004;48.206;16.402;2023-04-25T04:28:07;5.50;;;3.03;;
13868;SDS011;7004;48.206;16.402;2023-04-25T04:30:33;5.83;;;3.00;;
13868;SDS011;7004;48.206;16.402;2023-04-25T04:33:01;4.00;;;3.10;;
13868;SDS011;7004;48.206;16.402;2023-04-25T04:35:28;3.67;;;2.67;;
13868;SDS011;7004;48.206;16.402;2023-04-25T04:37:55;3.57;;;2.60;;
13868;SDS011;7004;48.206;16.402;2023-04-25T04:40:21;3.73;;;3.10;;
13868;SDS011;7004;48.206;16.402;2023-04-25T04:42:47;6.43;;;3.07;;
13868;SDS011;7004;48.206;16.402;2023-04-25T04:45:14;3.40;;;3.10;;
13868;SDS011;7004;48.206;16.402;2023-04-25T04:47:41;3.10;;;2.80;;
13868;SDS011;7004;48.206;16.402;2023-04-25T04:50:09;3.50;;;2.70;;
13868;SDS011;7004;48.206;16.402;2023-04-25T04:52:36;3.13;;;2.70;;
13868;SDS011;7004;48.206;16.402;2023-04-25T04:55:03;4.30;;;3.23;;
13868;SDS011;7004;48.206;16.402;2023-04-25T04:57:31;6.70;;;3.83;;
13868;SDS011;7004;48.206;16.402;2023-04-25T04:59:58;4.60;;;3.60;;
13868;SDS011;7004;48.206;16.402;2023-04-25T05:02:24;4.43;;;3.10;;
13868;SDS011;7004;48.206;16.402;2023-04-25T05:04:51;3.47;;;2.70;;
13868;SDS011;7004;48.206;16.402;2023-04-25T05:07:18;3.93;;;2.87;;
13868;SDS011;7004;48.206;16.402;2023-04-25T05:09:44;4.13;;;3.07;;
13868;SDS011;7004;48.206;16.402;2023-04-25T05:12:10;4.13;;;2.73;;
13868;SDS011;7004;48.206;16.402;2023-04-25T05:14:37;2.80;;;2.50;;
13868;SDS011;7004;48.206;16.402;2023-04-25T05:17:03;3.77;;;2.97;;
13868;SDS011;7004;48.206;16.402;2023-04-25T05:19:33;3.27;;;2.70;;
13868;SDS011;7004;48.206;16.402;2023-04-25T05:22:00;3.50;;;3.13;;
13868;SDS011;7004;48.206;16.402;2023-04-25T05:24:26;4.33;;;3.10;;
13868;SDS011;7004;48.206;16.402;2023-04-25T05:26:55;5.27;;;3.30;;
13868;SDS011;7004;48.206;16.402;2023-04-25T05:29:21;4.40;;;2.87;;
13868;SDS011;7004;48.206;16.402;2023-04-25T05:31:47;4.90;;;3.50;;
13868;SDS011;7004;48.206;16.402;2023-04-25T05:34:13;4.90;;;3.10;;
13868;SDS011;7004;48.206;16.402;2023-04-25T05:36:40;7.57;;;3.47;;
13868;SDS011;7004;48.206;16.402;2023-04-25T05:39:06;3.80;;;3.33;;
13868;SDS011;7004;48.206;16.402;2023-04-25T05:41:33;4.57;;;3.40;;
13868;SDS011;7004;48.206;16.402;2023-04-25T05:43:59;4.80;;;3.83;;
13868;SDS011;7004;48.206;16.402;2023-04-25T05:46:25;5.60;;;3.90;;
13868;SDS011;7004;48.206;16.402;2023-04-25T05:48:52;4.37;;;3.73;;
13868;SDS011;7004;48.206;16.402;2023-04-25T05:51:18;5.63;;;3.50;;
13868;SDS011;7004;48.206;16.402;2023-04-25T05:53:44;3.40;;;3.10;;
13868;SDS011;7004;48.206;16.402;2023-04-25T05:56:10;4.77;;;3.73;;
13868;SDS011;7004;48.206;16.402;2023-04-25T05:58:37;4.20;;;3.33;;
13868;SDS011;7004;48.206;16.402;2023-04-25T06:01:03;4.37;;;3.50;;
13868;SDS011;7004;48.206;16.402;2023-04-25T06:03:29;4.43;;;3.30;;
13868;SDS011;7004;48.206;16.402;2023-04-25T06:05:55;4.03;;;3.00;;
13868;SDS011;7004;48.206;16.402;2023-04-25T06:08:21;3.30;;;3.00;;
13868;SDS011;7004;48.206;16.402;2023-04-25T06:10:47;3.23;;;2.93;;
13868;SDS011;7004;48.206;16.402;2023-04-25T06:13:14;3.17;;;2.87;;
13868;SDS011;7004;48.206;16.402;2023-04-25T06:15:40;5.30;;;2.93;;
13868;SDS011;7004;48.206;16.402;2023-04-25T06:18:06;3.50;;;3.03;;
13868;SDS011;7004;48.206;16.402;2023-04-25T06:20:33;3.50;;;2.70;;
13868;SDS011;7004;48.206;16.402;2023-04-25T06:22:59;3.20;;;2.90;;
13868;SDS011;7004;48.206;16.402;2023-04-25T06:25:25;2.80;;;2.37;;
13868;SDS011;7004;48.206;16.402;2023-04-25T06:27:52;2.73;;;2.53;;
13868;SDS011;7004;48.206;16.402;2023-04-25T06:30:18;2.70;;;2.50;;
13868;SDS011;7004;48.206;16.402;2023-04-25T06:32:47;4.40;;;3.00;;
13868;SDS011;7004;48.206;16.402;2023-04-25T06:35:13;3.30;;;2.90;;
13868;SDS011;7004;48.206;16.402;2023-04-25T06:37:40;3.30;;;2.37;;
13868;SDS011;7004;48.206;16.402;2023-04-25T06:40:06;2.97;;;2.53;;
13868;SDS011;7004;48.206;16.402;2023-04-25T06:42:33;2.50;;;2.30;;
13868;SDS011;7004;48.206;16.402;2023-04-25T06:44:59;2.63;;;2.20;;
13868;SDS011;7004;48.206;16.402;2023-04-25T06:47:25;3.60;;;2.53;;
13868;SDS011;7004;48.206;16.402;2023-04-25T06:49:51;2.73;;;2.43;;
13868;SDS011;7004;48.206;16.402;2023-04-25T06:52:17;2.97;;;2.63;;
13868;SDS011;7004;48.206;16.402;2023-04-25T06:54:44;4.73;;;2.83;;
13868;SDS011;7004;48.206;16.402;2023-04-25T06:57:10;3.60;;;2.53;;
13868;SDS011;7004;48.206;16.402;2023-04-25T06:59:36;3.33;;;2.47;;
13868;SDS011;7004;48.206;16.402;2023-04-25T07:02:03;3.23;;;2.70;;
13868;SDS011;7004;48.206;16.402;2023-04-25T07:04:29;3.63;;;2.30;;
13868;SDS011;7004;48.206;16.402;2023-04-25T07:06:56;3.60;;;2.53;;
13868;SDS011;7004;48.206;16.402;2023-04-25T07:09:22;3.77;;;2.70;;
13868;SDS011;7004;48.206;16.402;2023-04-25T07:11:49;2.90;;;2.70;;
13868;SDS011;7004;48.206;16.402;2023-04-25T07:14:15;4.03;;;2.27;;
13868;SDS011;7004;48.206;16.402;2023-04-25T07:16:41;3.13;;;2.70;;
13868;SDS011;7004;48.206;16.402;2023-04-25T07:19:07;3.00;;;2.60;;
13868;SDS011;7004;48.206;16.402;2023-04-25T07:21:33;2.83;;;2.57;;
13868;SDS011;7004;48.206;16.402;2023-04-25T07:23:59;3.63;;;2.80;;
13868;SDS011;7004;48.206;16.402;2023-04-25T07:26:25;3.20;;;2.80;;
13868;SDS011;7004;48.206;16.402;2023-04-25T07:28:51;4.50;;;3.10;;
13868;SDS011;7004;48.206;16.402;2023-04-25T07:31:17;5.27;;;2.80;;
13868;SDS011;7004;48.206;16.402;2023-04-25T07:33:44;3.67;;;3.00;;
13868;SDS011;7004;48.206;16.402;2023-04-25T07:36:11;3.27;;;2.90;;
13868;SDS011;7004;48.206;16.402;2023-04-25T07:38:38;3.93;;;2.77;;
13868;SDS011;7004;48.206;16.402;2023-04-25T07:41:04;3.27;;;2.70;;
13868;SDS011;7004;48.206;16.402;2023-04-25T07:43:31;3.63;;;2.50;;
13868;SDS011;7004;48.206;16.402;2023-04-25T07:45:57;6.37;;;3.50;;
13868;SDS011;7004;48.206;16.402;2023-04-25T07:48:23;3.13;;;2.83;;
13868;SDS011;7004;48.206;16.402;2023-04-25T07:50:49;3.13;;;2.83;;
13868;SDS011;7004;48.206;16.402;2023-04-25T07:53:16;3.00;;;2.53;;
13868;SDS011;7004;48.206;16.402;2023-04-25T07:55:43;3.73;;;3.33;;
13868;SDS011;7004;48.206;16.402;2023-04-25T07:58:09;3.30;;;2.53;;
13868;SDS011;7004;48.206;16.402;2023-04-25T08:00:36;5.97;;;3.10;;
13868;SDS011;7004;48.206;16.402;2023-04-25T08:03:03;3.03;;;2.73;;
13868;SDS011;7004;48.206;16.402;2023-04-25T08:05:29;3.23;;;2.67;;
13868;SDS011;7004;48.206;16.402;2023-04-25T08:07:55;2.97;;;2.37;;
13868;SDS011;7004;48.206;16.402;2023-04-25T08:10:22;3.53;;;2.70;;
13868;SDS011;7004;48.206;16.402;2023-04-25T08:12:48;3.47;;;2.30;;
13868;SDS011;7004;48.206;16.402;2023-04-25T08:15:14;5.27;;;2.53;;
13868;SDS011;7004;48.206;16.402;2023-04-25T08:17:41;3.90;;;2.93;;
13868;SDS011;7004;48.206;16.402;2023-04-25T08:20:09;2.40;;;2.20;;
13868;SDS011;7004;48.206;16.402;2023-04-25T08:22:36;2.67;;;2.40;;
13868;SDS011;7004;48.206;16.402;2023-04-25T08:25:02;2.97;;;2.60;;
13868;SDS011;7004;48.206;16.402;2023-04-25T08:27:29;3.10;;;2.80;;
13868;SDS011;7004;48.206;16.402;2023-04-25T08:29:55;3.03;;;2.73;;
13868;SDS011;7004;48.206;16.402;2023-04-25T08:32:21;2.90;;;2.70;;
13868;SDS011;7004;48.206;16.402;2023-04-25T08:34:48;2.60;;;2.40;;
13868;SDS011;7004;48.206;16.402;2023-04-25T08:37:14;2.70;;;2.20;;
13868;SDS011;7004;48.206;16.402;2023-04-25T08:39:40;3.00;;;2.50;;
13868;SDS011;7004;48.206;16.402;2023-04-25T08:42:07;4.60;;;2.30;;
13868;SDS011;7004;48.206;16.402;2023-04-25T08:44:34;2.70;;;2.50;;
13868;SDS011;7004;48.206;16.402;2023-04-25T08:47:03;2.80;;;2.47;;
13868;SDS011;7004;48.206;16.402;2023-04-25T08:49:34;2.70;;;2.40;;
13868;SDS011;7004;48.206;16.402;2023-04-25T08:52:02;2.60;;;2.40;;
13868;SDS011;7004;48.206;16.402;2023-04-25T08:54:32;2.70;;;2.50;;
13868;SDS011;7004;48.206;16.402;2023-04-25T08:57:00;2.50;;;2.30;;
13868;SDS011;7004;48.206;16.402;2023-04-25T08:59:29;2.90;;;2.60;;
13868;SDS011;7004;48.206;16.402;2023-04-25T09:01:57;2.70;;;2.50;;
13868;SDS011;7004;48.206;16.402;2023-04-25T09:04:23;2.30;;;2.10;;
13868;SDS011;7004;48.206;16.402;2023-04-25T09:06:49;2.57;;;2.37;;
13868;SDS011;7004;48.206;16.402;2023-04-25T09:09:16;2.00;;;1.90;;
13868;SDS011;7004;48.206;16.402;2023-04-25T09:11:42;2.70;;;2.50;;
13868;SDS011;7004;48.206;16.402;2023-04-25T09:19:27;2.63;;;2.20;;
13868;SDS011;7004;48.206;16.402;2023-04-25T09:21:56;2.40;;;1.83;;
13868;SDS011;7004;48.206;16.402;2023-04-25T09:27:07;3.33;;;2.20;;
13868;SDS011;7004;48.206;16.402;2023-04-25T09:29:37;2.70;;;2.20;;
13868;SDS011;7004;48.206;16.402;2023-04-25T09:32:24;2.77;;;2.30;;
13868;SDS011;7004;48.206;16.402;2023-04-25T09:34:52;2.77;;;2.37;;
13868;SDS011;7004;48.206;16.402;2023-04-25T09:37:21;3.37;;;2.40;;
13868;SDS011;7004;48.206;16.402;2023-04-25T09:39:52;2.60;;;2.40;;
13868;SDS011;7004;48.206;16.402;2023-04-25T09:42:25;4.27;;;3.07;;
13868;SDS011;7004;48.206;16.402;2023-04-25T09:44:54;3.67;;;3.10;;
13868;SDS011;7004;48.206;16.402;2023-04-25T09:47:22;4.37;;;2.77;;
13868;SDS011;7004;48.206;16.402;2023-04-25T09:49:51;3.40;;;2.80;;
13868;SDS011;7004;48.206;16.402;2023-04-25T09:52:19;3.20;;;2.90;;
13868;SDS011;7004;48.206;16.402;2023-04-25T09:54:47;2.67;;;2.17;;
13868;SDS011;7004;48.206;16.402;2023-04-25T09:57:16;2.30;;;2.10;;
13868;SDS011;7004;48.206;16.402;2023-04-25T09:59:48;2.10;;;1.90;;
13868;SDS011;7004;48.206;16.402;2023-04-25T10:02:19;2.23;;;1.80;;
13868;SDS011;7004;48.206;16.402;2023-04-25T10:04:49;2.33;;;1.63;;
13868;SDS011;7004;48.206;16.402;2023-04-25T10:07:18;1.67;;;1.57;;
13868;SDS011;7004;48.206;16.402;2023-04-25T10:09:54;1.50;;;1.40;;
13868;SDS011;7004;48.206;16.402;2023-04-25T10:12:28;1.97;;;1.60;;
13868;SDS011;7004;48.206;16.402;2023-04-25T10:14:58;1.57;;;1.47;;
13868;SDS011;7004;48.206;16.402;2023-04-25T10:17:28;1.83;;;1.23;;
13868;SDS011;7004;48.206;16.402;2023-04-25T10:19:55;1.57;;;1.40;;
13868;SDS011;7004;48.206;16.402;2023-04-25T10:24:58;1.53;;;1.43;;
13868;SDS011;7004;48.206;16.402;2023-04-25T10:27:26;1.80;;;1.67;;
13868;SDS011;7004;48.206;16.402;2023-04-25T10:30:09;1.70;;;1.60;;
13868;SDS011;7004;48.206;16.402;2023-04-25T10:32:43;1.60;;;1.50;;
13868;SDS011;7004;48.206;16.402;2023-04-25T10:41:02;1.30;;;1.20;;
13868;SDS011;7004;48.206;16.402;2023-04-25T10:43:37;2.30;;;1.23;;
13868;SDS011;7004;48.206;16.402;2023-04-25T10:48:52;2.30;;;1.50;;
13868;SDS011;7004;48.206;16.402;2023-04-25T10:51:29;2.40;;;1.57;;
13868;SDS011;7004;48.206;16.402;2023-04-25T10:53:58;1.33;;;1.20;;
13868;SDS011;7004;48.206;16.402;2023-04-25T10:59:04;2.07;;;1.37;;
13868;SDS011;7004;48.206;16.402;2023-04-25T11:09:35;4.90;;;1.80;;
13868;SDS011;7004;48.206;16.402;2023-04-25T11:12:06;2.13;;;1.70;;
13868;SDS011;7004;48.206;16.402;2023-04-25T11:14:34;1.80;;;1.70;;
13868;SDS011;7004;48.206;16.402;2023-04-25T11:17:01;4.00;;;2.10;;
13868;SDS011;7004;48.206;16.402;2023-04-25T11:19:28;2.20;;;1.87;;
13868;SDS011;7004;48.206;16.402;2023-04-25T11:21:55;2.00;;;1.80;;
13868;SDS011;7004;48.206;16.402;2023-04-25T11:24:32;2.40;;;1.77;;
13868;SDS011;7004;48.206;16.402;2023-04-25T11:27:01;2.67;;;1.97;;
13868;SDS011;7004;48.206;16.402;2023-04-25T11:29:29;1.70;;;1.60;;
13868;SDS011;7004;48.206;16.402;2023-04-25T11:31:57;2.37;;;1.57;;
13868;SDS011;7004;48.206;16.402;2023-04-25T11:34:27;1.97;;;1.50;;
13868;SDS011;7004;48.206;16.402;2023-04-25T11:36:55;1.77;;;1.50;;
13868;SDS011;7004;48.206;16.402;2023-04-25T11:39:25;2.83;;;1.50;;
13868;SDS011;7004;48.206;16.402;2023-04-25T11:41:52;1.50;;;1.40;;
13868;SDS011;7004;48.206;16.402;2023-04-25T11:44:20;1.50;;;1.40;;
13868;SDS011;7004;48.206;16.402;2023-04-25T11:46:47;1.60;;;1.50;;
13868;SDS011;7004;48.206;16.402;2023-04-25T11:49:14;1.70;;;1.60;;
13868;SDS011;7004;48.206;16.402;2023-04-25T11:51:44;2.90;;;1.80;;
13868;SDS011;7004;48.206;16.402;2023-04-25T11:54:12;2.30;;;1.50;;
13868;SDS011;7004;48.206;16.402;2023-04-25T11:56:42;2.47;;;1.90;;
13868;SDS011;7004;48.206;16.402;2023-04-25T11:59:10;2.07;;;1.47;;
13868;SDS011;7004;48.206;16.402;2023-04-25T12:01:38;2.47;;;1.80;;
13868;SDS011;7004;48.206;16.402;2023-04-25T12:04:17;1.80;;;1.70;;
13868;SDS011;7004;48.206;16.402;2023-04-25T12:06:46;2.00;;;1.50;;
13868;SDS011;7004;48.206;16.402;2023-04-25T12:09:18;1.67;;;1.47;;
13868;SDS011;7004;48.206;16.402;2023-04-25T12:11:47;1.90;;;1.70;;
13868;SDS011;7004;48.206;16.402;2023-04-25T12:14:22;3.60;;;1.90;;
13868;SDS011;7004;48.206;16.402;2023-04-25T12:16:54;1.83;;;1.60;;
13868;SDS011;7004;48.206;16.402;2023-04-25T12:19:23;1.50;;;1.40;;
13868;SDS011;7004;48.206;16.402;2023-04-25T12:21:49;1.40;;;1.30;;
13868;SDS011;7004;48.206;16.402;2023-04-25T12:24:17;1.67;;;1.40;;
13868;SDS011;7004;48.206;16.402;2023-04-25T12:29:23;2.47;;;2.27;;
13868;SDS011;7004;48.206;16.402;2023-04-25T12:31:52;1.53;;;1.30;;
13868;SDS011;7004;48.206;16.402;2023-04-25T12:34:20;1.93;;;1.47;;
13868;SDS011;7004;48.206;16.402;2023-04-25T12:36:49;1.23;;;1.13;;
13868;SDS011;7004;48.206;16.402;2023-04-25T12:39:17;1.43;;;1.23;;
13868;SDS011;7004;48.206;16.402;2023-04-25T12:41:45;1.50;;;1.40;;
13868;SDS011;7004;48.206;16.402;2023-04-25T12:44:12;1.20;;;1.10;;
13868;SDS011;7004;48.206;16.402;2023-04-25T12:46:39;1.17;;;1.10;;
13868;SDS011;7004;48.206;16.402;2023-04-25T12:49:06;1.50;;;1.40;;
13868;SDS011;7004;48.206;16.402;2023-04-25T12:51:34;1.70;;;1.10;;
13868;SDS011;7004;48.206;16.402;2023-04-25T12:54:02;1.47;;;1.37;;
13868;SDS011;7004;48.206;16.402;2023-04-25T12:56:30;1.30;;;1.20;;
13868;SDS011;7004;48.206;16.402;2023-04-25T12:58:57;1.40;;;1.30;;
13868;SDS011;7004;48.206;16.402;2023-04-25T13:01:24;1.30;;;1.20;;
13868;SDS011;7004;48.206;16.402;2023-04-25T13:03:52;1.30;;;1.20;;
13868;SDS011;7004;48.206;16.402;2023-04-25T13:06:18;1.60;;;1.13;;
13868;SDS011;7004;48.206;16.402;2023-04-25T13:08:45;1.00;;;1.00;;
13868;SDS011;7004;48.206;16.402;2023-04-25T13:11:12;1.53;;;1.43;;
13868;SDS011;7004;48.206;16.402;2023-04-25T13:13:40;1.40;;;1.30;;
13868;SDS011;7004;48.206;16.402;2023-04-25T13:16:07;2.07;;;1.30;;
13868;SDS011;7004;48.206;16.402;2023-04-25T13:18:34;1.60;;;1.50;;
13868;SDS011;7004;48.206;16.402;2023-04-25T13:21:00;1.70;;;1.00;;
13868;SDS011;7004;48.206;16.402;2023-04-25T13:23:27;1.63;;;1.53;;
13868;SDS011;7004;48.206;16.402;2023-04-25T13:25:55;1.27;;;1.17;;
13868;SDS011;7004;48.206;16.402;2023-04-25T13:28:23;1.30;;;1.13;;
13868;SDS011;7004;48.206;16.402;2023-04-25T13:30:50;1.40;;;1.30;;
13868;SDS011;7004;48.206;16.402;2023-04-25T13:33:20;1.37;;;1.27;;
13868;SDS011;7004;48.206;16.402;2023-04-25T13:35:47;1.30;;;1.20;;
13868;SDS011;7004;48.206;16.402;2023-04-25T13:38:24;1.63;;;1.27;;
13868;SDS011;7004;48.206;16.402;2023-04-25T13:40:50;1.10;;;1.00;;
13868;SDS011;7004;48.206;16.402;2023-04-25T13:43:18;1.27;;;1.10;;
13868;SDS011;7004;48.206;16.402;2023-04-25T13:45:47;1.27;;;1.17;;
13868;SDS011;7004;48.206;16.402;2023-04-25T13:48:14;1.43;;;1.03;;
13868;SDS011;7004;48.206;16.402;2023-04-25T13:50:41;1.87;;;1.33;;
13868;SDS011;7004;48.206;16.402;2023-04-25T13:53:07;1.40;;;1.27;;
13868;SDS011;7004;48.206;16.402;2023-04-25T13:55:34;1.90;;;1.20;;
13868;SDS011;7004;48.206;16.402;2023-04-25T13:58:03;1.67;;;1.03;;
13868;SDS011;7004;48.206;16.402;2023-04-25T14:00:33;1.33;;;1.00;;
13868;SDS011;7004;48.206;16.402;2023-04-25T14:03:03;1.67;;;1.40;;
13868;SDS011;7004;48.206;16.402;2023-04-25T14:05:32;1.20;;;1.10;;
13868;SDS011;7004;48.206;16.402;2023-04-25T14:08:04;1.70;;;1.30;;
13868;SDS011;7004;48.206;16.402;2023-04-25T14:10:31;1.43;;;1.33;;
13868;SDS011;7004;48.206;16.402;2023-04-25T14:12:57;2.87;;;1.40;;
13868;SDS011;7004;48.206;16.402;2023-04-25T14:15:24;2.23;;;1.50;;
13868;SDS011;7004;48.206;16.402;2023-04-25T14:17:50;1.40;;;1.30;;
13868;SDS011;7004;48.206;16.402;2023-04-25T14:20:16;2.00;;;1.40;;
13868;SDS011;7004;48.206;16.402;2023-04-25T14:22:45;0.90;;;0.90;;
13868;SDS011;7004;48.206;16.402;2023-04-25T14:25:12;1.30;;;1.20;;
13868;SDS011;7004;48.206;16.402;2023-04-25T14:27:38;1.27;;;1.17;;
13868;SDS011;7004;48.206;16.402;2023-04-25T14:30:04;1.40;;;1.30;;
13868;SDS011;7004;48.206;16.402;2023-04-25T14:32:32;1.43;;;1.00;;
13868;SDS011;7004;48.206;16.402;2023-04-25T14:34:58;1.40;;;1.00;;
13868;SDS011;7004;48.206;16.402;2023-04-25T14:37:24;3.03;;;1.20;;
13868;SDS011;7004;48.206;16.402;2023-04-25T14:39:50;1.13;;;1.03;;
13868;SDS011;7004;48.206;16.402;2023-04-25T14:42:18;2.07;;;1.10;;
13868;SDS011;7004;48.206;16.402;2023-04-25T14:44:44;1.07;;;0.93;;
13868;SDS011;7004;48.206;16.402;2023-04-25T14:47:10;2.57;;;1.07;;
13868;SDS011;7004;48.206;16.402;2023-04-25T14:49:37;1.30;;;1.20;;
13868;SDS011;7004;48.206;16.402;2023-04-25T14:52:03;1.80;;;1.20;;
13868;SDS011;7004;48.206;16.402;2023-04-25T14:54:29;1.47;;;1.17;;
13868;SDS011;7004;48.206;16.402;2023-04-25T14:56:56;1.33;;;1.23;;
13868;SDS011;7004;48.206;16.402;2023-04-25T14:59:22;1.47;;;1.37;;
13868;SDS011;7004;48.206;16.402;2023-04-25T15:01:50;1.10;;;1.10;;
13868;SDS011;7004;48.206;16.402;2023-04-25T15:04:16;1.40;;;1.30;;
13868;SDS011;7004;48.206;16.402;2023-04-25T15:06:42;1.30;;;1.20;;
13868;SDS011;7004;48.206;16.402;2023-04-25T15:09:08;1.70;;;1.30;;
13868;SDS011;7004;48.206;16.402;2023-04-25T15:11:36;1.30;;;1.20;;
13868;SDS011;7004;48.206;16.402;2023-04-25T15:14:03;1.50;;;1.37;;
13868;SDS011;7004;48.206;16.402;2023-04-25T15:16:29;2.17;;;1.63;;
13868;SDS011;7004;48.206;16.402;2023-04-25T15:18:56;1.70;;;1.60;;
13868;SDS011;7004;48.206;16.402;2023-04-25T15:21:22;1.73;;;1.63;;